createdAt,value
2023-04-24T00:01:38.141Z,99476.84
2023-04-24T00:04:05.260Z,99481.88
2023-04-24T00:06:34.935Z,99474.56
2023-04-24T00:09:02.227Z,99476.28
2023-04-24T00:11:29.455Z,99472.47
2023-04-24T00:13:57.328Z,99475.44
2023-04-24T00:16:24.450Z,99464.88
2023-04-24T00:18:51.231Z,99461.78
2023-04-24T00:21:18.888Z,99455.31
2023-04-24T00:23:45.768Z,99459.44
2023-04-24T00:26:12.903Z,99449.00
2023-04-24T00:28:39.702Z,99446.66
2023-04-24T00:31:06.677Z,99447.63
2023-04-24T00:33:33.459Z,99437.50
2023-04-24T00:36:00.341Z,99435.53
2023-04-24T00:38:27.141Z,99427.91
2023-04-24T00:40:55.282Z,99420.09
2023-04-24T00:43:22.375Z,99419.66
2023-04-24T00:45:49.905Z,99417.31
2023-04-24T00:48:17.528Z,99424.91
2023-04-24T00:50:44.632Z,99421.66
2023-04-24T00:53:11.973Z,99419.81
2023-04-24T00:55:38.827Z,99423.88
2023-04-24T00:58:06.127Z,99412.53
2023-04-24T01:00:32.898Z,99402.41
2023-04-24T01:03:03.211Z,99398.22
2023-04-24T01:05:30.062Z,99396.25
2023-04-24T01:07:57.427Z,99401.03
2023-04-24T01:10:24.669Z,99396.53
2023-04-24T01:12:53.300Z,99395.97
2023-04-24T01:15:20.218Z,99384.63
2023-04-24T01:17:47.888Z,99386.16
2023-04-24T01:20:15.875Z,99388.50
2023-04-24T01:22:43.238Z,99386.16
2023-04-24T01:25:10.047Z,99382.22
2023-04-24T01:27:36.868Z,99386.72
2023-04-24T01:30:06.580Z,99384.16
2023-04-24T01:32:33.535Z,99384.16
2023-04-24T01:35:00.720Z,99389.66
2023-04-24T01:37:28.108Z,99401.31
2023-04-24T01:39:55.134Z,99393.44
2023-04-24T01:42:22.652Z,99395.13
2023-04-24T01:44:49.576Z,99396.13
2023-04-24T01:47:16.600Z,99390.94
2023-04-24T01:49:43.710Z,99385.13
2023-04-24T01:52:12.640Z,99380.94
2023-04-24T01:54:39.402Z,99373.78
2023-04-24T01:57:06.695Z,99372.19
2023-04-24T01:59:34.621Z,99358.34
2023-04-24T02:02:01.604Z,99365.88
2023-04-24T02:04:28.516Z,99360.84
2023-04-24T02:06:55.640Z,99368.16
2023-04-24T02:09:22.470Z,99354.66
2023-04-24T02:11:49.318Z,99347.78
2023-04-24T02:14:16.143Z,99356.66
2023-04-24T02:16:43.627Z,99345.00
2023-04-24T02:19:10.727Z,99347.78
2023-04-24T02:21:37.592Z,99353.97
2023-04-24T02:24:04.484Z,99357.47
2023-04-24T02:26:32.953Z,99352.44
2023-04-24T02:28:59.819Z,99357.47
2023-04-24T02:31:26.638Z,99354.97
2023-04-24T02:33:53.444Z,99349.47
2023-04-24T02:36:20.230Z,99343.16
2023-04-24T02:38:48.926Z,99335.00
2023-04-24T02:41:15.749Z,99340.50
2023-04-24T02:43:43.169Z,99342.44
2023-04-24T02:46:10.111Z,99343.47
2023-04-24T02:48:37.006Z,99341.63
2023-04-24T02:51:03.917Z,99344.72
2023-04-24T02:53:31.782Z,99338.69
2023-04-24T02:55:58.550Z,99334.03
2023-04-24T02:58:26.318Z,99342.19
2023-04-24T03:00:57.126Z,99336.03
2023-04-24T03:03:24.112Z,99336.47
2023-04-24T03:05:51.538Z,99335.06
2023-04-24T03:08:18.810Z,99333.94
2023-04-24T03:10:48.041Z,99331.59
2023-04-24T03:13:16.825Z,99335.22
2023-04-24T03:15:44.142Z,99330.03
2023-04-24T03:18:11.154Z,99319.63
2023-04-24T03:20:38.741Z,99333.38
2023-04-24T03:23:05.656Z,99337.81
2023-04-24T03:25:32.733Z,99330.78
2023-04-24T03:27:59.674Z,99333.91
2023-04-24T03:30:36.287Z,99349.38
2023-04-24T03:33:04.337Z,99352.03
2023-04-24T03:35:35.061Z,99343.78
2023-04-24T03:38:05.953Z,99352.78
2023-04-24T03:40:53.973Z,99345.19
2023-04-24T03:43:36.852Z,99337.50
2023-04-24T03:46:05.414Z,99339.59
2023-04-24T03:48:36.389Z,99345.75
2023-04-24T03:51:03.301Z,99345.47
2023-04-24T03:53:31.735Z,99351.09
2023-04-24T03:55:59.690Z,99345.06
2023-04-24T03:58:27.565Z,99346.06
2023-04-24T04:00:58.118Z,99346.19
2023-04-24T04:03:50.585Z,99347.16
2023-04-24T04:06:22.686Z,99352.63
2023-04-24T04:08:51.274Z,99352.22
2023-04-24T04:11:18.492Z,99346.06
2023-04-24T04:13:46.817Z,99348.44
2023-04-24T04:16:13.898Z,99335.78
2023-04-24T04:18:40.759Z,99333.97
2023-04-24T04:21:08.186Z,99342.78
2023-04-24T04:23:35.264Z,99332.88
2023-04-24T04:26:17.074Z,99338.31
2023-04-24T04:28:56.684Z,99331.16
2023-04-24T04:31:24.683Z,99327.53
2023-04-24T04:33:52.291Z,99324.88
2023-04-24T04:36:19.288Z,99337.34
2023-04-24T04:38:51.308Z,99340.72
2023-04-24T04:41:43.097Z,99340.28
2023-04-24T04:44:11.058Z,99343.78
2023-04-24T04:46:41.721Z,99339.28
2023-04-24T04:49:29.683Z,99335.66
2023-04-24T04:51:56.767Z,99339.03
2023-04-24T04:54:28.471Z,99337.06
2023-04-24T04:56:58.437Z,99339.59
2023-04-24T04:59:25.505Z,99348.56
2023-04-24T05:01:58.705Z,99346.06
2023-04-24T05:04:25.910Z,99356.72
2023-04-24T05:06:52.964Z,99356.41
2023-04-24T05:09:21.315Z,99354.19
2023-04-24T05:11:52.958Z,99364.88
2023-04-24T05:14:20.266Z,99360.22
2023-04-24T05:16:47.256Z,99357.44
2023-04-24T05:19:17.070Z,99358.09
2023-04-24T05:21:46.498Z,99359.50
2023-04-24T05:24:13.399Z,99356.81
2023-04-24T05:26:49.520Z,99362.72
2023-04-24T05:29:20.579Z,99359.22
2023-04-24T05:31:47.963Z,99370.47
2023-04-24T05:34:17.221Z,99371.03
2023-04-24T05:36:45.992Z,99365.69
2023-04-24T05:39:12.896Z,99355.53
2023-04-24T05:41:39.679Z,99358.59
2023-04-24T05:44:06.494Z,99357.47
2023-04-24T05:46:33.429Z,99374.72
2023-04-24T05:49:00.280Z,99369.09
2023-04-24T05:51:27.593Z,99367.81
2023-04-24T05:53:54.807Z,99361.78
2023-04-24T05:56:21.981Z,99366.38
2023-04-24T05:58:49.523Z,99364.66
2023-04-24T06:01:16.776Z,99356.50
2023-04-24T06:03:47.399Z,99366.03
2023-04-24T06:06:14.772Z,99370.25
2023-04-24T06:08:43.659Z,99373.59
2023-04-24T06:11:11.035Z,99367.09
2023-04-24T06:13:39.195Z,99381.16
2023-04-24T06:16:28.715Z,99380.41
2023-04-24T06:19:01.695Z,99380.66
2023-04-24T06:21:28.820Z,99387.69
2023-04-24T06:23:57.265Z,99371.28
2023-04-24T06:26:26.159Z,99369.44
2023-04-24T06:28:54.896Z,99381.50
2023-04-24T06:31:21.803Z,99381.06
2023-04-24T06:33:50.255Z,99380.91
2023-04-24T06:36:17.257Z,99391.41
2023-04-24T06:38:44.094Z,99400.25
2023-04-24T06:41:11.478Z,99384.94
2023-04-24T06:43:38.235Z,99381.44
2023-04-24T06:46:05.171Z,99392.94
2023-04-24T06:48:31.970Z,99379.28
2023-04-24T06:51:01.295Z,99385.72
2023-04-24T06:53:28.650Z,99380.88
2023-04-24T06:55:56.072Z,99385.41
2023-04-24T06:58:22.834Z,99383.28
2023-04-24T07:00:49.579Z,99385.63
2023-04-24T07:03:16.551Z,99381.00
2023-04-24T07:05:43.718Z,99381.91
2023-04-24T07:08:12.581Z,99372.44
2023-04-24T07:10:39.363Z,99372.97
2023-04-24T07:13:06.415Z,99369.91
2023-04-24T07:15:33.589Z,99371.00
2023-04-24T07:18:01.658Z,99373.66
2023-04-24T07:20:29.441Z,99375.03
2023-04-24T07:22:56.392Z,99384.94
2023-04-24T07:25:23.198Z,99381.38
2023-04-24T07:27:50.295Z,99382.53
2023-04-24T07:30:17.327Z,99373.66
2023-04-24T07:32:44.207Z,99373.56
2023-04-24T07:35:11.333Z,99373.28
2023-04-24T07:37:38.183Z,99378.69
2023-04-24T07:40:05.622Z,99378.91
2023-04-24T07:42:32.352Z,99369.31
2023-04-24T07:45:00.934Z,99377.06
2023-04-24T07:47:28.132Z,99387.69
2023-04-24T07:49:55.040Z,99400.69
2023-04-24T07:52:21.842Z,99383.28
2023-04-24T07:54:48.749Z,99378.22
2023-04-24T07:57:15.777Z,99380.13
2023-04-24T07:59:42.959Z,99382.69
2023-04-24T08:02:10.959Z,99384.38
2023-04-24T08:04:40.484Z,99375.25
2023-04-24T08:07:07.275Z,99374.69
2023-04-24T08:09:34.126Z,99376.53
2023-04-24T08:12:01.032Z,99386.28
2023-04-24T08:14:27.881Z,99376.75
2023-04-24T08:16:56.550Z,99386.50
2023-04-24T08:19:23.524Z,99381.31
2023-04-24T08:21:50.311Z,99373.81
2023-04-24T08:24:17.081Z,99376.69
2023-04-24T08:26:43.974Z,99368.84
2023-04-24T08:29:13.618Z,99373.88
2023-04-24T08:31:40.523Z,99375.75
2023-04-24T08:34:07.350Z,99386.81
2023-04-24T08:36:46.013Z,99377.09
2023-04-24T08:39:14.200Z,99384.03
2023-04-24T08:41:44.212Z,99376.19
2023-04-24T08:44:11.401Z,99377.56
2023-04-24T08:46:38.663Z,99378.28
2023-04-24T08:49:06.016Z,99377.13
2023-04-24T08:51:32.889Z,99372.47
2023-04-24T08:53:59.695Z,99382.84
2023-04-24T08:56:27.033Z,99373.69
2023-04-24T08:58:55.204Z,99372.00
2023-04-24T09:01:22.380Z,99380.03
2023-04-24T09:03:50.333Z,99386.09
2023-04-24T09:06:19.068Z,99384.47
2023-04-24T09:08:46.722Z,99376.91
2023-04-24T09:11:13.526Z,99382.28
2023-04-24T09:13:40.706Z,99391.53
2023-04-24T09:16:07.511Z,99380.97
2023-04-24T09:18:36.412Z,99387.97
2023-04-24T09:21:06.096Z,99383.13
2023-04-24T09:23:33.377Z,99386.16
2023-04-24T09:26:02.093Z,99384.81
2023-04-24T09:28:33.676Z,99386.00
2023-04-24T09:31:10.618Z,99384.66
2023-04-24T09:33:37.870Z,99395.72
2023-04-24T09:36:05.270Z,99375.13
2023-04-24T09:38:33.902Z,99392.91
2023-04-24T09:41:04.239Z,99389.03
2023-04-24T09:43:31.536Z,99394.06
2023-04-24T09:45:59.962Z,99392.03
2023-04-24T09:48:38.234Z,99392.88
2023-04-24T09:51:08.408Z,99396.91
2023-04-24T09:53:35.223Z,99397.59
2023-04-24T09:56:13.593Z,99399.56
2023-04-24T09:58:40.505Z,99397.41
2023-04-24T10:01:07.366Z,99387.34
2023-04-24T10:03:35.251Z,99389.38
2023-04-24T10:06:10.431Z,99388.19
2023-04-24T10:08:38.766Z,99394.91
2023-04-24T10:11:05.804Z,99397.59
2023-04-24T10:13:33.571Z,99394.22
2023-04-24T10:16:02.188Z,99389.38
2023-04-24T10:18:29.377Z,99390.72
2023-04-24T10:20:56.315Z,99387.34
2023-04-24T10:23:24.353Z,99382.31
2023-04-24T10:25:52.231Z,99380.50
2023-04-24T10:28:20.294Z,99383.69
2023-04-24T10:30:47.126Z,99381.81
2023-04-24T10:33:15.049Z,99380.81
2023-04-24T10:35:44.237Z,99385.38
2023-04-24T10:38:13.785Z,99384.50
2023-04-24T10:40:40.791Z,99385.53
2023-04-24T10:43:10.794Z,99374.13
2023-04-24T10:45:38.614Z,99375.81
2023-04-24T10:48:11.941Z,99367.25
2023-04-24T10:50:47.613Z,99374.13
2023-04-24T10:53:20.398Z,99370.28
2023-04-24T10:55:50.322Z,99371.59
2023-04-24T10:58:18.218Z,99373.47
2023-04-24T11:00:46.283Z,99376.47
2023-04-24T11:03:28.070Z,99381.00
2023-04-24T11:05:57.491Z,99372.28
2023-04-24T11:08:31.685Z,99380.50
2023-04-24T11:11:01.251Z,99371.78
2023-04-24T11:13:49.751Z,99378.31
2023-04-24T11:16:22.836Z,99375.78
2023-04-24T11:18:55.525Z,99377.31
2023-04-24T11:21:23.695Z,99369.59
2023-04-24T11:23:51.821Z,99365.75
2023-04-24T11:26:25.588Z,99369.75
2023-04-24T11:28:52.355Z,99375.63
2023-04-24T11:31:43.261Z,99367.91
2023-04-24T11:34:11.897Z,99366.41
2023-04-24T11:36:39.012Z,99370.59
2023-04-24T11:39:06.278Z,99372.78
2023-04-24T11:41:34.717Z,99371.25
2023-04-24T11:44:02.248Z,99376.47
2023-04-24T11:46:31.106Z,99366.59
2023-04-24T11:48:58.146Z,99367.22
2023-04-24T11:51:30.679Z,99367.06
2023-04-24T11:54:04.469Z,99361.69
2023-04-24T11:56:31.535Z,99369.22
2023-04-24T11:58:58.313Z,99365.91
2023-04-24T12:01:25.136Z,99367.56
2023-04-24T12:03:52.693Z,99394.75
2023-04-24T12:06:20.588Z,99380.84
2023-04-24T12:08:49.000Z,99387.84
2023-04-24T12:11:19.136Z,99407.94
2023-04-24T12:13:46.425Z,99403.72
2023-04-24T12:16:13.970Z,99417.97
2023-04-24T12:18:47.250Z,99409.88
2023-04-24T12:21:21.326Z,99407.94
2023-04-24T12:23:49.905Z,99406.34
2023-04-24T12:26:20.504Z,99398.31
2023-04-24T12:28:48.146Z,99393.97
2023-04-24T12:31:15.030Z,99386.81
2023-04-24T12:33:41.979Z,99372.75
2023-04-24T12:36:11.428Z,99367.56
2023-04-24T12:38:41.502Z,99370.09
2023-04-24T12:41:11.014Z,99366.38
2023-04-24T12:43:38.280Z,99355.72
2023-04-24T12:46:06.084Z,99348.00
2023-04-24T12:48:33.447Z,99342.03
2023-04-24T12:51:02.771Z,99339.41
2023-04-24T12:53:33.160Z,99341.94
2023-04-24T12:55:59.922Z,99338.75
2023-04-24T12:58:26.996Z,99328.47
2023-04-24T13:00:53.901Z,99330.22
2023-04-24T13:03:21.313Z,99329.97
2023-04-24T13:05:48.423Z,99323.28
2023-04-24T13:08:15.289Z,99325.56
2023-04-24T13:10:42.353Z,99320.97
2023-04-24T13:13:09.861Z,99314.41
2023-04-24T13:15:36.810Z,99311.53
2023-04-24T13:18:03.724Z,99288.16
2023-04-24T13:20:30.706Z,99341.47
2023-04-24T13:22:57.573Z,99341.25
2023-04-24T13:25:24.801Z,99330.56
2023-04-24T13:27:52.018Z,99331.28
2023-04-24T13:30:18.933Z,99339.97
2023-04-24T13:32:45.839Z,99330.56
2023-04-24T13:35:12.783Z,99341.53
2023-04-24T13:37:39.548Z,99330.84
2023-04-24T13:40:07.331Z,99339.09
2023-04-24T13:42:34.370Z,99331.88
2023-04-24T13:45:05.955Z,99335.47
2023-04-24T13:47:37.997Z,99329.00
2023-04-24T13:50:05.249Z,99332.78
2023-04-24T13:52:31.990Z,99324.78
2023-04-24T13:54:58.785Z,99325.00
2023-04-24T13:57:25.630Z,99339.50
2023-04-24T13:59:52.441Z,99350.13
2023-04-24T14:02:19.310Z,99336.69
2023-04-24T14:04:46.340Z,99337.47
2023-04-24T14:07:13.273Z,99322.91
2023-04-24T14:09:40.005Z,99338.38
2023-04-24T14:12:08.103Z,99334.69
2023-04-24T14:14:34.923Z,99330.69
2023-04-24T14:17:01.765Z,99320.78
2023-04-24T14:19:28.611Z,99310.84
2023-04-24T14:21:56.796Z,99309.91
2023-04-24T14:24:23.566Z,99316.22
2023-04-24T14:26:50.339Z,99327.81
2023-04-24T14:29:17.955Z,99320.88
2023-04-24T14:31:44.809Z,99314.34
2023-04-24T14:34:11.788Z,99319.38
2023-04-24T14:36:38.941Z,99314.53
2023-04-24T14:39:08.423Z,99302.47
2023-04-24T14:41:40.373Z,99331.63
2023-04-24T14:44:07.570Z,99326.25
2023-04-24T14:46:34.546Z,99315.56
2023-04-24T14:49:01.360Z,99326.84
2023-04-24T14:51:28.321Z,99342.50
2023-04-24T14:53:55.627Z,99325.75
2023-04-24T14:56:22.519Z,99341.16
2023-04-24T14:58:49.294Z,99321.75
2023-04-24T15:01:17.702Z,99320.06
2023-04-24T15:03:45.329Z,99336.69
2023-04-24T15:06:12.553Z,99318.91
2023-04-24T15:08:39.673Z,99336.16
2023-04-24T15:11:06.524Z,99322.50
2023-04-24T15:13:33.313Z,99331.59
2023-04-24T15:16:00.193Z,99319.56
2023-04-24T15:18:28.802Z,99347.31
2023-04-24T15:20:56.242Z,99326.97
2023-04-24T15:23:22.977Z,99332.59
2023-04-24T15:25:49.954Z,99371.81
2023-04-24T15:28:17.446Z,99339.91
2023-04-24T15:30:44.213Z,99328.56
2023-04-24T15:33:11.188Z,99343.69
2023-04-24T15:35:38.169Z,99352.06
2023-04-24T15:38:05.382Z,99354.22
2023-04-24T15:40:32.187Z,99340.72
2023-04-24T15:42:59.085Z,99366.03
2023-04-24T15:45:26.437Z,99319.66
2023-04-24T15:47:53.270Z,99353.41
2023-04-24T15:50:21.913Z,99383.63
2023-04-24T15:52:48.746Z,99356.53
2023-04-24T15:55:15.565Z,99387.06
2023-04-24T15:57:43.176Z,99365.84
2023-04-24T16:00:11.244Z,99371.94
2023-04-24T16:02:41.255Z,99370.09
2023-04-24T16:05:08.997Z,99375.63
2023-04-24T16:07:39.018Z,99382.31
2023-04-24T16:10:06.643Z,99381.31
2023-04-24T16:12:33.512Z,99379.16
2023-04-24T16:15:00.390Z,99385.69
2023-04-24T16:17:27.177Z,99375.63
2023-04-24T16:19:53.919Z,99400.13
2023-04-24T16:22:20.677Z,99390.69
2023-04-24T16:24:48.256Z,99382.34
2023-04-24T16:27:15.929Z,99384.50
2023-04-24T16:29:42.808Z,99392.69
2023-04-24T16:32:10.946Z,99383.66
2023-04-24T16:34:37.785Z,99390.66
2023-04-24T16:37:05.700Z,99404.91
2023-04-24T16:39:32.565Z,99391.16
2023-04-24T16:42:00.422Z,99392.16
2023-04-24T16:44:28.218Z,99395.69
2023-04-24T16:46:55.044Z,99399.19
2023-04-24T16:49:23.910Z,99397.50
2023-04-24T16:51:51.112Z,99387.13
2023-04-24T16:54:17.925Z,99404.03
2023-04-24T16:56:44.677Z,99432.91
2023-04-24T16:59:11.618Z,99447.72
2023-04-24T17:01:38.572Z,99440.38
2023-04-24T17:04:05.647Z,99449.72
2023-04-24T17:06:32.548Z,99438.75
2023-04-24T17:09:00.725Z,99422.91
2023-04-24T17:11:29.870Z,99447.31
2023-04-24T17:14:00.030Z,99449.88
2023-04-24T17:16:27.278Z,99464.31
2023-04-24T17:18:54.432Z,99492.50
2023-04-24T17:21:21.424Z,99461.94
2023-04-24T17:23:48.237Z,99468.41
2023-04-24T17:26:15.060Z,99463.16
2023-04-24T17:28:42.017Z,99475.75
2023-04-24T17:31:09.098Z,99506.13
2023-04-24T17:33:35.976Z,99497.41
2023-04-24T17:36:02.876Z,99488.38
2023-04-24T17:38:30.206Z,99514.56
2023-04-24T17:40:57.375Z,99485.34
2023-04-24T17:43:24.730Z,99495.94
2023-04-24T17:45:53.141Z,99500.72
2023-04-24T17:48:20.173Z,99497.94
2023-04-24T17:50:47.000Z,99505.25
2023-04-24T17:53:14.209Z,99502.28
2023-04-24T17:55:43.821Z,99508.31
2023-04-24T17:58:10.897Z,99514.78
2023-04-24T18:00:38.114Z,99526.16
2023-04-24T18:03:06.558Z,99545.66
2023-04-24T18:05:35.718Z,99537.22
2023-04-24T18:08:02.883Z,99546.22
2023-04-24T18:10:31.893Z,99535.97
2023-04-24T18:12:59.311Z,99530.66
2023-04-24T18:15:26.581Z,99546.47
2023-04-24T18:17:56.455Z,99545.91
2023-04-24T18:20:23.439Z,99546.34
2023-04-24T18:22:50.281Z,99571.44
2023-04-24T18:25:17.963Z,99572.41
2023-04-24T18:27:44.728Z,99574.34
2023-04-24T18:30:14.508Z,99595.66
2023-04-24T18:32:42.550Z,99595.34
2023-04-24T18:35:10.200Z,99593.19
2023-04-24T18:37:37.044Z,99596.50
2023-04-24T18:40:04.104Z,99584.13
2023-04-24T18:42:31.042Z,99634.03
2023-04-24T18:45:01.975Z,99599.44
2023-04-24T18:47:31.390Z,99622.66
2023-04-24T18:50:00.852Z,99645.22
2023-04-24T18:52:27.754Z,99634.25
2023-04-24T18:54:54.578Z,99637.97
2023-04-24T18:57:21.686Z,99659.06
2023-04-24T18:59:48.487Z,99655.06
2023-04-24T19:02:16.243Z,99651.16
2023-04-24T19:04:43.326Z,99690.31
2023-04-24T19:07:10.338Z,99681.31
2023-04-24T19:09:37.342Z,99680.34
2023-04-24T19:12:04.486Z,99685.56
2023-04-24T19:14:31.264Z,99689.19
2023-04-24T19:16:58.521Z,99681.69
2023-04-24T19:19:26.385Z,99684.22
2023-04-24T19:21:53.489Z,99693.19
2023-04-24T19:24:21.457Z,99685.31
2023-04-24T19:26:48.296Z,99685.69
2023-04-24T19:29:15.084Z,99674.47
2023-04-24T19:31:41.991Z,99687.88
2023-04-24T19:34:09.137Z,99689.56
2023-04-24T19:36:36.704Z,99692.81
2023-04-24T19:39:04.271Z,99684.00
2023-04-24T19:41:31.447Z,99688.84
2023-04-24T19:43:58.294Z,99714.53
2023-04-24T19:46:27.695Z,99703.31
2023-04-24T19:48:54.647Z,99711.03
2023-04-24T19:51:21.636Z,99697.88
2023-04-24T19:53:49.678Z,99697.66
2023-04-24T19:56:16.686Z,99700.88
2023-04-24T19:58:43.651Z,99701.72
2023-04-24T20:01:10.677Z,99704.41
2023-04-24T20:03:37.919Z,99691.59
2023-04-24T20:06:04.980Z,99703.19
2023-04-24T20:08:31.842Z,99704.13
2023-04-24T20:10:58.879Z,99713.44
2023-04-24T20:13:28.283Z,99708.47
2023-04-24T20:15:55.250Z,99706.16
2023-04-24T20:18:22.224Z,99719.44
2023-04-24T20:20:49.293Z,99703.66
2023-04-24T20:23:16.142Z,99705.47
2023-04-24T20:25:42.878Z,99704.59
2023-04-24T20:28:09.644Z,99709.91
2023-04-24T20:30:38.933Z,99703.41
2023-04-24T20:33:05.920Z,99714.63
2023-04-24T20:35:32.709Z,99711.59
2023-04-24T20:37:59.787Z,99715.41
2023-04-24T20:40:28.251Z,99740.38
2023-04-24T20:42:55.943Z,99721.97
2023-04-24T20:45:24.348Z,99721.72
2023-04-24T20:47:51.513Z,99717.13
2023-04-24T20:50:19.003Z,99720.53
2023-04-24T20:52:45.966Z,99717.75
2023-04-24T20:55:12.888Z,99721.00
2023-04-24T20:57:39.765Z,99724.25
2023-04-24T21:00:08.930Z,99713.44
2023-04-24T21:02:35.918Z,99709.56
2023-04-24T21:05:03.549Z,99716.03
2023-04-24T21:07:30.493Z,99718.44
2023-04-24T21:09:57.278Z,99718.91
2023-04-24T21:12:24.110Z,99712.50
2023-04-24T21:14:51.487Z,99713.00
2023-04-24T21:17:18.823Z,99715.66
2023-04-24T21:19:45.624Z,99724.19
2023-04-24T21:22:12.391Z,99709.53
2023-04-24T21:24:39.165Z,99707.69
2023-04-24T21:27:05.928Z,99700.31
2023-04-24T21:29:33.025Z,99706.25
2023-04-24T21:31:59.863Z,99699.72
2023-04-24T21:34:26.697Z,99697.28
2023-04-24T21:36:53.444Z,99715.94
2023-04-24T21:39:20.244Z,99706.44
2023-04-24T21:41:47.748Z,99702.44
2023-04-24T21:44:14.635Z,99703.53
2023-04-24T21:46:42.913Z,99701.25
2023-04-24T21:49:09.846Z,99706.09
2023-04-24T21:51:36.586Z,99694.41
2023-04-24T21:54:03.976Z,99696.09
2023-04-24T21:56:30.729Z,99711.88
2023-04-24T21:58:57.755Z,99704.16
2023-04-24T22:01:24.553Z,99694.44
2023-04-24T22:03:51.714Z,99705.03
2023-04-24T22:06:18.832Z,99695.88
2023-04-24T22:08:47.861Z,99695.25
2023-04-24T22:11:25.676Z,99686.50
2023-04-24T22:13:54.356Z,99688.81
2023-04-24T22:16:23.077Z,99686.88
2023-04-24T22:18:50.539Z,99688.66
2023-04-24T22:21:17.564Z,99695.66
2023-04-24T22:23:44.523Z,99709.47
2023-04-24T22:26:11.311Z,99706.31
2023-04-24T22:28:38.200Z,99703.34
2023-04-24T22:31:05.055Z,99697.13
2023-04-24T22:33:31.824Z,99695.66
2023-04-24T22:35:58.563Z,99700.69
2023-04-24T22:38:25.389Z,99707.41
2023-04-24T22:40:52.171Z,99701.41
2023-04-24T22:43:19.110Z,99702.84
2023-04-24T22:45:45.992Z,99697.53
2023-04-24T22:48:12.767Z,99689.69
2023-04-24T22:50:39.556Z,99693.78
2023-04-24T22:53:06.438Z,99698.59
2023-04-24T22:55:33.203Z,99698.63
2023-04-24T22:58:00.989Z,99690.69
2023-04-24T23:00:27.917Z,99692.13
2023-04-24T23:02:54.828Z,99693.31
2023-04-24T23:05:22.811Z,99689.22
2023-04-24T23:07:49.615Z,99716.88
2023-04-24T23:10:16.735Z,99690.84
2023-04-24T23:12:43.903Z,99690.53
2023-04-24T23:15:12.191Z,99695.34
2023-04-24T23:17:39.272Z,99697.16
2023-04-24T23:20:06.741Z,99699.50
2023-04-24T23:22:34.009Z,99680.09
2023-04-24T23:25:01.391Z,99674.94
2023-04-24T23:27:28.153Z,99685.44
2023-04-24T23:29:54.916Z,99682.56
2023-04-24T23:32:21.793Z,99678.22
2023-04-24T23:34:48.646Z,99683.41
2023-04-24T23:37:17.310Z,99688.31
2023-04-24T23:39:46.046Z,99682.94
2023-04-24T23:42:12.821Z,99668.59
2023-04-24T23:44:39.593Z,99670.91
2023-04-24T23:47:06.575Z,99677.69
2023-04-24T23:49:33.366Z,99678.16
2023-04-24T23:52:00.236Z,99696.25
2023-04-24T23:54:27.025Z,99672.63
2023-04-24T23:56:53.752Z,99678.75
2023-04-24T23:59:21.743Z,99675.03
